createdAt,value
2023-04-08T00:00:10.052Z,6.80
2023-04-08T00:02:37.925Z,5.65
2023-04-08T00:05:06.489Z,5.93
2023-04-08T00:07:34.376Z,6.13
2023-04-08T00:10:02.161Z,5.68
2023-04-08T00:12:31.334Z,6.13
2023-04-08T00:14:59.139Z,6.90
2023-04-08T00:17:27.050Z,5.25
2023-04-08T00:19:55.357Z,5.78
2023-04-08T00:22:23.151Z,4.97
2023-04-08T00:24:50.944Z,5.10
2023-04-08T00:27:18.772Z,5.78
2023-04-08T00:29:47.919Z,5.95
2023-04-08T00:32:15.680Z,4.63
2023-04-08T00:34:43.484Z,6.28
2023-04-08T00:37:11.492Z,6.60
2023-04-08T00:39:39.261Z,6.57
2023-04-08T00:42:07.028Z,6.75
2023-04-08T00:44:34.939Z,6.18
2023-04-08T00:47:04.822Z,5.43
2023-04-08T00:49:32.835Z,5.00
2023-04-08T00:52:00.715Z,7.40
2023-04-08T00:54:28.490Z,5.90
2023-04-08T00:56:56.843Z,6.70
2023-04-08T00:59:24.741Z,5.50
2023-04-08T01:01:58.576Z,7.30
2023-04-08T01:04:34.588Z,6.53
2023-04-08T01:07:09.929Z,5.53
2023-04-08T01:09:40.907Z,6.20
2023-04-08T01:12:14.032Z,6.63
2023-04-08T01:14:46.137Z,6.43
2023-04-08T01:17:14.027Z,5.28
2023-04-08T01:19:44.933Z,7.18
2023-04-08T01:22:20.969Z,6.55
2023-04-08T01:24:51.368Z,5.93
2023-04-08T01:27:21.356Z,5.83
2023-04-08T01:29:50.225Z,6.40
2023-04-08T01:32:18.521Z,5.90
2023-04-08T01:34:46.763Z,5.47
2023-04-08T01:37:16.648Z,4.95
2023-04-08T01:39:45.662Z,6.27
2023-04-08T01:42:14.830Z,5.20
2023-04-08T01:44:44.888Z,6.05
2023-04-08T01:47:14.392Z,5.40
2023-04-08T01:49:43.747Z,7.43
2023-04-08T01:52:12.538Z,6.57
2023-04-08T01:54:40.476Z,5.25
2023-04-08T01:57:13.205Z,6.25
2023-04-08T01:59:43.315Z,5.90
2023-04-08T02:02:12.732Z,6.47
2023-04-08T02:04:40.764Z,5.30
2023-04-08T02:07:09.519Z,5.68
2023-04-08T02:09:37.311Z,6.57
2023-04-08T02:12:05.480Z,6.90
2023-04-08T02:14:33.464Z,5.65
2023-04-08T02:17:09.916Z,4.90
2023-04-08T02:19:45.367Z,6.18
2023-04-08T02:22:19.147Z,5.32
2023-04-08T02:24:48.074Z,6.65
2023-04-08T02:27:18.528Z,5.57
2023-04-08T02:29:47.317Z,6.17
2023-04-08T02:32:18.300Z,7.88
2023-04-08T02:34:46.542Z,6.18
2023-04-08T02:37:14.571Z,6.25
2023-04-08T02:39:42.388Z,6.25
2023-04-08T02:42:11.798Z,5.53
2023-04-08T02:44:39.859Z,5.88
2023-04-08T02:47:07.659Z,6.70
2023-04-08T02:49:36.812Z,5.68
2023-04-08T02:52:04.734Z,7.45
2023-04-08T02:54:32.512Z,7.43
2023-04-08T02:57:00.304Z,5.93
2023-04-08T02:59:28.077Z,5.75
2023-04-08T03:01:55.896Z,6.70
2023-04-08T03:04:23.715Z,8.00
2023-04-08T03:06:52.859Z,6.33
2023-04-08T03:09:20.619Z,6.40
2023-04-08T03:11:53.068Z,6.82
2023-04-08T03:14:21.754Z,6.25
2023-04-08T03:16:49.603Z,5.82
2023-04-08T03:19:17.555Z,8.77
2023-04-08T03:21:45.333Z,5.28
2023-04-08T03:24:14.465Z,5.97
2023-04-08T03:26:42.228Z,6.38
2023-04-08T03:29:10.332Z,5.30
2023-04-08T03:31:38.519Z,9.50
2023-04-08T03:34:06.295Z,8.43
2023-04-08T03:36:34.135Z,5.50
2023-04-08T03:39:03.729Z,6.30
2023-04-08T03:41:32.862Z,7.55
2023-04-08T03:44:00.687Z,8.27
2023-04-08T03:46:28.583Z,7.70
2023-04-08T03:48:56.513Z,6.78
2023-04-08T03:51:24.262Z,5.90
2023-04-08T03:53:52.015Z,5.95
2023-04-08T03:56:19.806Z,5.60
2023-04-08T03:58:49.318Z,5.85
2023-04-08T04:01:17.502Z,6.95
2023-04-08T04:03:45.421Z,6.50
2023-04-08T04:06:13.330Z,8.20
2023-04-08T04:08:41.141Z,7.07
2023-04-08T04:11:08.907Z,8.15
2023-04-08T04:13:36.731Z,6.22
2023-04-08T04:16:06.504Z,6.60
2023-04-08T04:18:34.516Z,6.78
2023-04-08T04:21:02.472Z,9.70
2023-04-08T04:23:30.335Z,6.40
2023-04-08T04:25:58.161Z,8.30
2023-04-08T04:28:26.034Z,6.53
2023-04-08T04:30:56.376Z,7.38
2023-04-08T04:33:25.759Z,7.00
2023-04-08T04:35:53.786Z,7.90
2023-04-08T04:38:21.664Z,9.45
2023-04-08T04:40:49.427Z,8.00
2023-04-08T04:43:17.556Z,8.10
2023-04-08T04:45:45.855Z,8.70
2023-04-08T04:48:13.618Z,8.52
2023-04-08T04:50:42.728Z,7.80
2023-04-08T04:53:10.645Z,9.13
2023-04-08T04:55:39.336Z,8.65
2023-04-08T04:58:07.178Z,7.07
2023-04-08T05:00:34.941Z,10.93
2023-04-08T05:03:02.884Z,8.95
2023-04-08T05:05:30.678Z,9.15
2023-04-08T05:07:59.792Z,7.00
2023-04-08T05:10:27.574Z,7.40
2023-04-08T05:12:56.684Z,10.15
2023-04-08T05:15:24.582Z,8.77
2023-04-08T05:17:52.374Z,9.00
2023-04-08T05:20:20.372Z,7.65
2023-04-08T05:22:48.115Z,8.83
2023-04-08T05:25:17.482Z,10.07
2023-04-08T05:27:45.581Z,8.80
2023-04-08T05:30:14.143Z,9.05
2023-04-08T05:32:41.952Z,8.90
2023-04-08T05:35:10.679Z,7.97
2023-04-08T05:37:38.486Z,8.50
2023-04-08T05:40:07.588Z,8.88
2023-04-08T05:42:36.735Z,8.80
2023-04-08T05:45:04.943Z,8.50
2023-04-08T05:47:32.764Z,8.97
2023-04-08T05:50:00.791Z,9.40
2023-04-08T05:52:28.596Z,9.40
2023-04-08T05:54:56.404Z,9.57
2023-04-08T05:57:24.167Z,9.75
2023-04-08T05:59:54.195Z,8.77
2023-04-08T06:02:22.077Z,9.07
2023-04-08T06:04:49.875Z,10.10
2023-04-08T06:07:17.637Z,11.48
2023-04-08T06:09:45.465Z,10.57
2023-04-08T06:12:13.336Z,9.50
2023-04-08T06:14:41.122Z,10.63
2023-04-08T06:17:10.294Z,9.75
2023-04-08T06:19:38.022Z,10.95
2023-04-08T06:22:05.784Z,10.15
2023-04-08T06:24:33.990Z,11.00
2023-04-08T06:27:01.774Z,8.40
2023-04-08T06:29:29.976Z,8.23
2023-04-08T06:31:57.853Z,10.65
2023-04-08T06:34:27.071Z,9.52
2023-04-08T06:36:54.800Z,11.13
2023-04-08T06:39:22.825Z,9.05
2023-04-08T06:41:50.996Z,9.20
2023-04-08T06:44:18.891Z,8.02
2023-04-08T06:46:46.758Z,9.27
2023-04-08T06:49:14.536Z,9.53
2023-04-08T06:51:43.690Z,8.05
2023-04-08T06:54:11.460Z,10.18
2023-04-08T06:56:39.334Z,9.18
2023-04-08T06:59:07.400Z,8.27
2023-04-08T07:01:35.446Z,7.80
2023-04-08T07:04:03.409Z,9.07
2023-04-08T07:06:31.390Z,10.18
2023-04-08T07:09:00.511Z,9.00
2023-04-08T07:11:28.320Z,7.93
2023-04-08T07:13:56.104Z,8.20
2023-04-08T07:16:23.917Z,8.77
2023-04-08T07:18:52.096Z,9.48
2023-04-08T07:21:20.124Z,9.65
2023-04-08T07:23:47.957Z,9.88
2023-04-08T07:26:17.146Z,7.40
2023-04-08T07:28:44.928Z,7.78
2023-04-08T07:31:14.260Z,9.93
2023-04-08T07:33:42.067Z,8.48
2023-04-08T07:36:10.530Z,9.40
2023-04-08T07:38:38.883Z,8.27
2023-04-08T07:41:06.820Z,7.60
2023-04-08T07:43:37.438Z,11.52
2023-04-08T07:46:06.110Z,7.50
2023-04-08T07:48:35.220Z,8.85
2023-04-08T07:51:08.913Z,8.73
2023-04-08T07:53:40.221Z,8.55
2023-04-08T07:56:12.846Z,8.25
2023-04-08T07:58:42.655Z,6.85
2023-04-08T08:01:18.683Z,8.90
2023-04-08T08:03:48.023Z,8.50
2023-04-08T08:06:16.311Z,8.68
2023-04-08T08:08:44.387Z,7.05
2023-04-08T08:11:12.200Z,8.32
2023-04-08T08:13:40.001Z,9.98
2023-04-08T08:16:11.560Z,9.47
2023-04-08T08:18:40.423Z,8.90
2023-04-08T08:21:08.747Z,8.38
2023-04-08T08:23:37.412Z,7.35
2023-04-08T08:26:06.920Z,11.98
2023-04-08T08:28:34.769Z,8.33
2023-04-08T08:31:03.433Z,9.32
2023-04-08T08:33:32.808Z,8.25
2023-04-08T08:36:00.847Z,8.13
2023-04-08T08:38:28.724Z,7.85
2023-04-08T08:40:57.019Z,7.90
2023-04-08T08:43:25.302Z,7.38
2023-04-08T08:45:53.433Z,8.18
2023-04-08T08:48:21.677Z,8.85
2023-04-08T08:50:50.898Z,10.10
2023-04-08T08:53:19.715Z,7.43
2023-04-08T08:58:18.191Z,8.57
2023-04-08T09:00:45.981Z,7.63
2023-04-08T09:03:19.358Z,7.90
2023-04-08T09:05:53.781Z,7.50
2023-04-08T09:08:28.829Z,8.35
2023-04-08T09:10:57.687Z,7.97
2023-04-08T09:13:25.664Z,7.97
2023-04-08T09:16:03.979Z,8.32
2023-04-08T09:18:32.348Z,8.10
2023-04-08T09:21:02.827Z,9.82
2023-04-08T09:23:43.953Z,7.97
2023-04-08T09:26:13.435Z,9.07
2023-04-08T09:28:43.033Z,7.90
2023-04-08T09:31:23.206Z,8.33
2023-04-08T09:33:51.957Z,8.48
2023-04-08T09:36:21.365Z,8.27
2023-04-08T09:38:49.185Z,7.20
2023-04-08T09:41:18.027Z,8.32
2023-04-08T09:43:50.587Z,8.27
2023-04-08T09:46:20.608Z,7.10
2023-04-08T09:48:54.496Z,8.30
2023-04-08T09:51:25.155Z,7.00
2023-04-08T09:54:00.580Z,10.20
2023-04-08T09:56:35.916Z,7.33
2023-04-08T09:59:09.170Z,9.52
2023-04-08T10:01:40.166Z,7.63
2023-04-08T10:04:13.582Z,8.18
2023-04-08T10:06:43.056Z,7.80
2023-04-08T10:09:11.817Z,9.73
2023-04-08T10:11:39.994Z,7.32
2023-04-08T10:14:08.052Z,7.50
2023-04-08T10:16:35.993Z,7.20
2023-04-08T10:19:03.894Z,7.88
2023-04-08T10:21:36.394Z,8.20
2023-04-08T10:24:08.329Z,7.13
2023-04-08T10:26:41.335Z,9.25
2023-04-08T10:29:36.583Z,8.50
2023-04-08T10:32:04.630Z,6.65
2023-04-08T10:34:33.125Z,9.60
2023-04-08T10:37:02.225Z,6.70
2023-04-08T10:39:32.011Z,8.45
2023-04-08T10:42:02.829Z,7.20
2023-04-08T10:44:30.661Z,8.25
2023-04-08T10:46:58.442Z,7.20
2023-04-08T10:49:34.385Z,8.60
2023-04-08T10:52:02.276Z,7.80
2023-04-08T10:54:32.180Z,7.13
2023-04-08T10:57:00.217Z,9.38
2023-04-08T10:59:32.193Z,7.90
2023-04-08T11:02:01.385Z,8.00
2023-04-08T11:04:29.529Z,7.15
2023-04-08T11:06:58.247Z,9.38
2023-04-08T11:09:26.040Z,9.07
2023-04-08T11:11:56.674Z,8.47
2023-04-08T11:14:26.200Z,8.20
2023-04-08T11:16:54.178Z,9.48
2023-04-08T11:19:22.873Z,8.05
2023-04-08T11:21:52.554Z,7.50
2023-04-08T11:24:22.415Z,8.37
2023-04-08T11:26:50.482Z,8.68
2023-04-08T11:29:19.812Z,9.35
2023-04-08T11:31:49.643Z,8.13
2023-04-08T11:34:24.524Z,8.35
2023-04-08T11:36:52.733Z,10.57
2023-04-08T11:39:24.094Z,10.77
2023-04-08T11:41:51.917Z,7.90
2023-04-08T11:44:21.712Z,8.68
2023-04-08T11:46:55.441Z,7.95
2023-04-08T11:49:23.363Z,9.40
2023-04-08T11:51:59.034Z,8.23
2023-04-08T11:54:30.739Z,8.77
2023-04-08T11:56:59.219Z,8.73
2023-04-08T11:59:29.843Z,8.68
2023-04-08T12:01:57.991Z,9.40
2023-04-08T12:04:26.223Z,7.88
2023-04-08T12:06:55.009Z,9.23
2023-04-08T12:09:24.125Z,7.55
2023-04-08T12:11:51.992Z,7.95
2023-04-08T12:14:21.866Z,8.37
2023-04-08T12:16:51.301Z,10.80
2023-04-08T12:19:19.092Z,9.68
2023-04-08T12:21:47.002Z,9.57
2023-04-08T12:24:14.751Z,9.80
2023-04-08T12:26:42.527Z,13.17
2023-04-08T12:29:11.789Z,11.75
2023-04-08T12:31:39.687Z,12.38
2023-04-08T12:34:08.848Z,10.60
2023-04-08T12:36:38.963Z,11.45
2023-04-08T12:39:07.690Z,11.53
2023-04-08T12:41:35.755Z,13.68
2023-04-08T12:44:03.536Z,11.52
2023-04-08T12:46:31.320Z,14.02
2023-04-08T12:49:04.341Z,17.17
2023-04-08T12:51:34.618Z,13.13
2023-04-08T12:54:03.583Z,16.02
2023-04-08T12:56:31.679Z,17.52
2023-04-08T12:58:59.935Z,12.98
2023-04-08T13:01:27.822Z,10.93
2023-04-08T13:03:55.814Z,13.17
2023-04-08T13:06:24.150Z,12.48
2023-04-08T13:08:53.480Z,10.15
2023-04-08T13:11:21.396Z,12.40
2023-04-08T13:13:49.448Z,17.98
2023-04-08T13:16:17.816Z,10.47
2023-04-08T13:18:45.666Z,8.30
2023-04-08T13:21:13.440Z,8.73
2023-04-08T13:23:41.329Z,10.55
2023-04-08T13:26:10.770Z,12.95
2023-04-08T13:28:53.663Z,8.73
2023-04-08T13:31:24.877Z,9.13
2023-04-08T13:33:55.285Z,8.02
2023-04-08T13:36:24.877Z,9.38
2023-04-08T13:38:52.885Z,8.88
2023-04-08T13:41:22.213Z,8.50
2023-04-08T13:43:50.391Z,9.70
2023-04-08T13:46:18.416Z,9.40
2023-04-08T13:48:46.927Z,9.82
2023-04-08T13:51:14.802Z,9.07
2023-04-08T13:53:42.549Z,9.20
2023-04-08T13:56:10.648Z,10.25
2023-04-08T13:58:39.781Z,9.30
2023-04-08T14:01:07.841Z,10.55
2023-04-08T14:03:35.669Z,12.77
2023-04-08T14:06:03.494Z,12.77
2023-04-08T14:08:31.300Z,13.32
2023-04-08T14:10:59.236Z,12.52
2023-04-08T14:13:27.007Z,15.13
2023-04-08T14:15:58.382Z,10.38
2023-04-08T14:18:26.430Z,9.13
2023-04-08T14:20:54.267Z,9.98
2023-04-08T14:23:22.198Z,9.75
2023-04-08T14:25:49.948Z,10.55
2023-04-08T14:28:17.674Z,10.73
2023-04-08T14:30:45.466Z,10.20
2023-04-08T14:33:14.983Z,10.70
2023-04-08T14:35:42.785Z,10.32
2023-04-08T14:38:10.653Z,12.35
2023-04-08T14:40:38.458Z,11.00
2023-04-08T14:43:06.257Z,9.70
2023-04-08T14:45:34.220Z,9.45
2023-04-08T14:48:02.117Z,9.30
2023-04-08T14:50:31.731Z,9.88
2023-04-08T14:52:59.529Z,9.43
2023-04-08T14:55:28.575Z,9.87
2023-04-08T14:57:56.901Z,10.07
2023-04-08T15:00:24.859Z,10.50
2023-04-08T15:02:52.800Z,10.40
2023-04-08T15:05:20.822Z,10.10
2023-04-08T15:07:50.229Z,11.30
2023-04-08T15:10:18.040Z,10.35
2023-04-08T15:12:46.755Z,11.35
2023-04-08T15:15:14.578Z,14.00
2023-04-08T15:17:42.388Z,10.52
2023-04-08T15:20:11.256Z,11.80
2023-04-08T15:22:39.038Z,12.80
2023-04-08T15:25:09.355Z,10.82
2023-04-08T15:27:37.569Z,10.02
2023-04-08T15:30:06.004Z,8.88
2023-04-08T15:32:34.026Z,10.70
2023-04-08T15:35:02.031Z,10.65
2023-04-08T15:37:29.989Z,9.48
2023-04-08T15:39:57.740Z,8.48
2023-04-08T15:42:27.126Z,9.32
2023-04-08T15:44:54.889Z,8.40
2023-04-08T15:47:22.740Z,8.80
2023-04-08T15:49:53.423Z,6.50
2023-04-08T15:52:21.347Z,5.90
2023-04-08T15:54:49.146Z,5.85
2023-04-08T15:57:17.244Z,7.33
2023-04-08T15:59:46.410Z,5.88
2023-04-08T16:02:14.294Z,11.57
2023-04-08T16:04:42.810Z,6.43
2023-04-08T16:07:11.070Z,7.13
2023-04-08T16:09:38.864Z,5.20
2023-04-08T16:12:06.707Z,5.68
2023-04-08T16:14:34.524Z,5.13
2023-04-08T16:17:03.741Z,7.07
2023-04-08T16:19:32.630Z,6.07
2023-04-08T16:22:00.426Z,5.57
2023-04-08T16:24:28.348Z,5.38
2023-04-08T16:26:56.100Z,5.72
2023-04-08T16:29:23.846Z,6.65
2023-04-08T16:31:53.335Z,8.13
2023-04-08T16:34:24.130Z,6.73
2023-04-08T16:36:51.956Z,5.18
2023-04-08T16:39:19.714Z,5.28
2023-04-08T16:41:47.768Z,5.75
2023-04-08T16:44:16.100Z,5.40
2023-04-08T16:46:44.079Z,6.30
2023-04-08T16:49:14.509Z,4.55
2023-04-08T16:51:44.688Z,4.78
2023-04-08T16:54:12.638Z,6.65
2023-04-08T16:56:44.275Z,5.80
2023-04-08T16:59:12.533Z,6.67
2023-04-08T17:01:40.425Z,7.20
2023-04-08T17:04:08.481Z,6.85
2023-04-08T17:06:37.591Z,5.50
2023-04-08T17:09:06.852Z,5.88
2023-04-08T17:11:34.904Z,5.57
2023-04-08T17:14:03.051Z,5.70
2023-04-08T17:16:31.180Z,5.55
2023-04-08T17:18:59.329Z,4.82
2023-04-08T17:21:28.051Z,6.13
2023-04-08T17:23:56.774Z,5.13
2023-04-08T17:26:26.394Z,5.95
2023-04-08T17:28:54.338Z,6.88
2023-04-08T17:31:22.617Z,7.25
2023-04-08T17:33:51.196Z,6.70
2023-04-08T17:36:19.219Z,5.43
2023-04-08T17:38:49.336Z,5.40
2023-04-08T17:41:29.778Z,5.47
2023-04-08T17:44:04.818Z,5.00
2023-04-08T17:46:32.957Z,5.22
2023-04-08T17:49:00.784Z,5.63
2023-04-08T17:51:29.199Z,7.07
2023-04-08T17:53:57.328Z,7.88
2023-04-08T17:56:25.153Z,7.63
2023-04-08T17:58:52.956Z,6.97
2023-04-08T18:01:22.925Z,9.03
2023-04-08T18:03:51.684Z,8.38
2023-04-08T18:06:19.849Z,7.45
2023-04-08T18:08:47.679Z,8.82
2023-04-08T18:11:15.532Z,9.52
2023-04-08T18:13:43.411Z,11.00
2023-04-08T18:16:17.961Z,13.38
2023-04-08T18:18:47.950Z,11.90
2023-04-08T18:21:18.086Z,13.85
2023-04-08T18:23:46.949Z,11.10
2023-04-08T18:26:14.836Z,10.23
2023-04-08T18:28:42.572Z,9.10
2023-04-08T18:31:10.411Z,9.65
2023-04-08T18:33:38.975Z,7.55
2023-04-08T18:36:09.531Z,7.97
2023-04-08T18:38:38.103Z,9.70
2023-04-08T18:41:06.432Z,11.32
2023-04-08T18:43:35.001Z,9.40
2023-04-08T18:46:03.065Z,8.40
2023-04-08T18:48:31.278Z,8.02
2023-04-08T18:50:59.043Z,9.03
2023-04-08T18:53:28.555Z,9.50
2023-04-08T18:55:56.382Z,8.88
2023-04-08T18:58:24.368Z,8.75
2023-04-08T19:00:52.245Z,10.60
2023-04-08T19:03:20.213Z,8.20
2023-04-08T19:05:48.004Z,9.73
2023-04-08T19:08:15.929Z,11.15
2023-04-08T19:10:45.058Z,13.48
2023-04-08T19:13:12.789Z,15.43
2023-04-08T19:15:40.794Z,14.83
2023-04-08T19:18:08.550Z,13.05
2023-04-08T19:20:36.278Z,14.70
2023-04-08T19:23:04.038Z,14.40
2023-04-08T19:25:31.850Z,14.77
2023-04-08T19:28:00.970Z,15.13
2023-04-08T19:30:28.780Z,13.60
2023-04-08T19:32:56.737Z,12.35
2023-04-08T19:35:25.244Z,13.60
2023-04-08T19:37:53.012Z,14.05
2023-04-08T19:40:20.883Z,21.10
2023-04-08T19:42:48.657Z,28.38
2023-04-08T19:45:18.339Z,24.33
2023-04-08T19:47:46.947Z,21.13
2023-04-08T19:50:14.973Z,19.95
2023-04-08T19:52:42.784Z,19.03
2023-04-08T19:55:11.282Z,17.90
2023-04-08T19:57:39.270Z,18.42
2023-04-08T20:00:08.379Z,14.82
2023-04-08T20:02:37.651Z,15.85
2023-04-08T20:05:06.954Z,12.83
2023-04-08T20:07:35.295Z,15.57
2023-04-08T20:10:03.063Z,14.00
2023-04-08T20:12:31.315Z,14.07
2023-04-08T20:14:59.115Z,14.75
2023-04-08T20:17:27.283Z,13.70
2023-04-08T20:19:56.542Z,13.75
2023-04-08T20:22:24.301Z,14.68
2023-04-08T20:24:52.072Z,16.08
2023-04-08T20:27:19.839Z,17.52
2023-04-08T20:29:47.654Z,18.43
2023-04-08T20:32:15.450Z,17.75
2023-04-08T20:34:43.237Z,19.17
2023-04-08T20:37:12.368Z,19.40
2023-04-08T20:39:40.260Z,16.92
2023-04-08T20:42:09.400Z,16.03
2023-04-08T20:44:37.387Z,15.63
2023-04-08T20:47:05.340Z,15.05
2023-04-08T20:49:34.665Z,17.25
2023-04-08T20:52:02.501Z,18.13
2023-04-08T20:54:31.755Z,19.77
2023-04-08T20:56:59.699Z,15.38
2023-04-08T20:59:28.220Z,17.80
2023-04-08T21:01:56.093Z,19.35
2023-04-08T21:04:24.638Z,18.27
2023-04-08T21:06:52.478Z,20.73
2023-04-08T21:09:20.232Z,16.27
2023-04-08T21:11:49.355Z,19.75
2023-04-08T21:14:17.146Z,18.83
2023-04-08T21:16:45.011Z,20.33
2023-04-08T21:19:13.006Z,18.97
2023-04-08T21:21:41.083Z,21.55
2023-04-08T21:24:09.868Z,17.65
2023-04-08T21:26:37.712Z,16.90
2023-04-08T21:29:06.882Z,18.35
2023-04-08T21:31:34.793Z,17.53
2023-04-08T21:34:02.611Z,17.70
2023-04-08T21:36:31.389Z,18.27
2023-04-08T21:38:59.191Z,16.75
2023-04-08T21:41:28.955Z,15.45
2023-04-08T21:43:58.315Z,18.40
2023-04-08T21:46:27.539Z,18.45
2023-04-08T21:48:55.284Z,20.00
2023-04-08T21:51:23.172Z,20.80
2023-04-08T21:53:51.881Z,20.33
2023-04-08T21:56:19.837Z,20.20
2023-04-08T21:58:47.627Z,22.50
2023-04-08T22:01:15.531Z,24.10
2023-04-08T22:03:44.929Z,21.90
2023-04-08T22:06:22.009Z,19.70
2023-04-08T22:08:53.637Z,22.83
2023-04-08T22:11:21.496Z,20.02
2023-04-08T22:13:49.262Z,18.77
2023-04-08T22:16:17.074Z,21.10
2023-04-08T22:18:46.627Z,18.15
2023-04-08T22:21:14.477Z,19.43
2023-04-08T22:23:42.292Z,19.10
2023-04-08T22:26:10.262Z,22.80
2023-04-08T22:28:38.053Z,19.02
2023-04-08T22:31:10.951Z,17.58
2023-04-08T22:33:39.285Z,17.50
2023-04-08T22:36:08.667Z,20.90
2023-04-08T22:38:36.768Z,17.80
2023-04-08T22:41:04.659Z,16.92
2023-04-08T22:43:32.441Z,19.35
2023-04-08T22:46:00.544Z,19.73
2023-04-08T22:48:28.321Z,16.60
2023-04-08T22:50:56.390Z,18.50
2023-04-08T22:53:25.738Z,14.90
2023-04-08T22:55:53.574Z,17.38
2023-04-08T22:58:21.347Z,16.67
2023-04-08T23:00:49.114Z,18.95
2023-04-08T23:03:16.977Z,17.40
2023-04-08T23:05:44.786Z,19.02
2023-04-08T23:08:12.566Z,18.23
2023-04-08T23:10:41.714Z,19.53
2023-04-08T23:13:09.562Z,19.67
2023-04-08T23:15:37.502Z,20.00
2023-04-08T23:18:05.840Z,19.30
2023-04-08T23:20:34.461Z,18.02
2023-04-08T23:23:03.405Z,18.87
2023-04-08T23:25:31.276Z,16.40
2023-04-08T23:28:01.604Z,17.48
2023-04-08T23:30:29.336Z,17.60
2023-04-08T23:32:57.140Z,18.60
2023-04-08T23:35:24.988Z,17.27
2023-04-08T23:37:52.747Z,19.27
2023-04-08T23:40:20.816Z,17.00
2023-04-08T23:42:48.592Z,16.30
2023-04-08T23:45:18.032Z,17.20
2023-04-08T23:47:45.902Z,17.90
2023-04-08T23:50:13.704Z,17.52
2023-04-08T23:52:41.478Z,19.75
2023-04-08T23:55:10.051Z,15.63
2023-04-08T23:57:37.799Z,17.02
